createdAt,value
2017-12-21T00:00:06.795Z,2.20
2017-12-21T00:02:35.554Z,2.20
2017-12-21T00:05:05.754Z,2.20
2017-12-21T00:07:34.696Z,2.20
2017-12-21T00:10:04.839Z,2.20
2017-12-21T00:12:34.143Z,2.20
2017-12-21T00:15:04.089Z,2.20
2017-12-21T00:17:34.090Z,2.10
2017-12-21T00:20:03.144Z,2.10
2017-12-21T00:22:40.281Z,2.10
2017-12-21T00:25:09.655Z,2.10
2017-12-21T00:27:39.022Z,2.10
2017-12-21T00:30:08.204Z,2.10
2017-12-21T00:32:36.947Z,2.10
2017-12-21T00:35:06.820Z,2.10
2017-12-21T00:37:36.826Z,2.10
2017-12-21T00:40:06.816Z,2.10
2017-12-21T00:42:36.944Z,2.10
2017-12-21T00:45:06.414Z,2.10
2017-12-21T00:47:36.624Z,2.10
2017-12-21T00:50:06.200Z,2.00
2017-12-21T00:52:36.752Z,2.00
2017-12-21T00:55:06.551Z,2.00
2017-12-21T00:57:36.124Z,2.00
2017-12-21T01:00:07.167Z,2.00
2017-12-21T01:02:36.164Z,2.00
2017-12-21T01:05:04.517Z,2.00
2017-12-21T01:07:33.595Z,2.00
2017-12-21T01:10:02.488Z,2.00
2017-12-21T01:12:31.072Z,2.00
2017-12-21T01:15:00.143Z,2.00
2017-12-21T01:17:30.138Z,2.00
2017-12-21T01:19:59.673Z,1.90
2017-12-21T01:22:29.248Z,2.00
2017-12-21T01:24:59.227Z,2.00
2017-12-21T01:27:28.560Z,2.00
2017-12-21T01:29:58.089Z,2.00
2017-12-21T01:32:28.832Z,1.90
2017-12-21T01:35:00.695Z,1.90
2017-12-21T01:37:32.041Z,1.90
2017-12-21T01:40:03.508Z,1.90
2017-12-21T01:42:33.234Z,1.90
2017-12-21T01:45:01.785Z,1.90
2017-12-21T01:47:31.026Z,1.90
2017-12-21T01:49:59.725Z,1.90
2017-12-21T01:52:32.020Z,1.90
2017-12-21T01:55:03.431Z,1.90
2017-12-21T01:57:34.660Z,1.90
2017-12-21T02:00:06.888Z,1.90
2017-12-21T02:02:35.939Z,1.90
2017-12-21T02:05:04.074Z,1.90
2017-12-21T02:07:33.126Z,1.90
2017-12-21T02:10:01.891Z,1.90
2017-12-21T02:12:30.775Z,1.90
2017-12-21T02:15:06.415Z,1.90
2017-12-21T02:17:42.755Z,1.80
2017-12-21T02:20:18.295Z,1.80
2017-12-21T02:22:54.464Z,1.80
2017-12-21T02:25:23.148Z,1.80
2017-12-21T02:27:52.198Z,1.80
2017-12-21T02:30:20.649Z,1.80
2017-12-21T02:32:49.844Z,1.80
2017-12-21T02:35:19.237Z,1.80
2017-12-21T02:37:53.940Z,1.80
2017-12-21T02:40:23.028Z,1.80
2017-12-21T02:42:51.669Z,1.80
2017-12-21T02:45:22.541Z,1.80
2017-12-21T02:47:50.930Z,1.80
2017-12-21T02:50:19.687Z,1.80
2017-12-21T02:52:49.022Z,1.80
2017-12-21T02:55:17.999Z,1.80
2017-12-21T02:57:46.847Z,1.80
2017-12-21T03:00:16.394Z,1.80
2017-12-21T03:02:45.672Z,1.80
2017-12-21T03:05:14.338Z,1.80
2017-12-21T03:07:43.312Z,1.80
2017-12-21T03:10:12.271Z,1.80
2017-12-21T03:12:43.432Z,1.80
2017-12-21T03:15:12.815Z,1.70
2017-12-21T03:17:42.842Z,1.80
2017-12-21T03:20:12.974Z,1.80
2017-12-21T03:22:43.450Z,1.70
2017-12-21T03:25:16.075Z,1.70
2017-12-21T03:27:45.123Z,1.70
2017-12-21T03:30:15.346Z,1.70
2017-12-21T03:32:44.912Z,1.70
2017-12-21T03:35:14.238Z,1.70
2017-12-21T03:37:44.974Z,1.70
2017-12-21T03:40:14.644Z,1.70
2017-12-21T03:42:43.829Z,1.70
2017-12-21T03:48:05.539Z,1.70
2017-12-21T03:50:34.951Z,1.70
2017-12-21T03:53:04.601Z,1.70
2017-12-21T03:55:34.721Z,1.70
2017-12-21T03:58:03.172Z,1.70
2017-12-21T04:00:31.982Z,1.70
2017-12-21T04:03:00.658Z,1.70
2017-12-21T04:05:29.323Z,1.70
2017-12-21T04:07:57.837Z,1.70
2017-12-21T04:10:27.374Z,1.70
2017-12-21T04:12:58.168Z,1.70
2017-12-21T04:15:30.289Z,1.70
2017-12-21T04:18:01.753Z,1.70
2017-12-21T04:20:33.352Z,1.70
2017-12-21T04:23:05.308Z,1.70
2017-12-21T04:25:37.038Z,1.70
2017-12-21T04:28:09.229Z,1.70
2017-12-21T04:30:38.151Z,1.70
2017-12-21T04:33:06.558Z,1.70
2017-12-21T04:35:35.987Z,1.70
2017-12-21T04:38:05.049Z,1.70
2017-12-21T04:40:33.824Z,1.70
2017-12-21T04:43:02.663Z,1.70
2017-12-21T04:45:31.783Z,1.60
2017-12-21T04:48:00.653Z,1.60
2017-12-21T04:50:29.812Z,1.70
2017-12-21T04:52:58.660Z,1.60
2017-12-21T04:55:28.045Z,1.60
2017-12-21T04:57:56.318Z,1.60
2017-12-21T05:00:26.105Z,1.60
2017-12-21T05:02:54.539Z,1.60
2017-12-21T05:05:23.391Z,1.60
2017-12-21T05:07:54.806Z,1.60
2017-12-21T05:10:25.350Z,1.60
2017-12-21T05:12:56.683Z,1.60
2017-12-21T05:15:27.348Z,1.60
2017-12-21T05:17:57.516Z,1.60
2017-12-21T05:22:59.957Z,1.60
2017-12-21T05:25:28.934Z,1.60
2017-12-21T05:27:58.351Z,1.60
2017-12-21T05:30:28.458Z,1.60
2017-12-21T05:32:58.292Z,1.60
2017-12-21T05:35:28.523Z,1.60
2017-12-21T05:37:58.019Z,1.60
2017-12-21T05:40:26.969Z,1.60
2017-12-21T05:42:56.262Z,1.60
2017-12-21T05:45:25.836Z,1.60
2017-12-21T05:47:55.075Z,1.60
2017-12-21T05:50:24.664Z,1.60
2017-12-21T05:52:54.406Z,1.60
2017-12-21T05:55:24.635Z,1.60
2017-12-21T05:57:54.003Z,1.60
2017-12-21T06:00:23.973Z,1.60
2017-12-21T06:02:53.442Z,1.60
2017-12-21T06:05:23.385Z,1.60
2017-12-21T06:07:52.534Z,1.60
2017-12-21T06:10:21.554Z,1.60
2017-12-21T06:12:51.433Z,1.60
2017-12-21T06:15:20.013Z,1.60
2017-12-21T06:17:49.050Z,1.60
2017-12-21T06:20:18.013Z,1.60
2017-12-21T06:22:46.630Z,1.60
2017-12-21T06:25:17.025Z,1.60
2017-12-21T06:27:48.395Z,1.60
2017-12-21T06:30:17.886Z,1.60
2017-12-21T06:32:47.618Z,1.60
2017-12-21T06:35:17.660Z,1.60
2017-12-21T06:37:47.732Z,1.60
2017-12-21T06:40:17.785Z,1.60
2017-12-21T06:42:46.612Z,1.60
2017-12-21T06:45:16.233Z,1.50
2017-12-21T06:47:45.769Z,1.60
2017-12-21T06:50:17.514Z,1.60
2017-12-21T06:52:47.939Z,1.50
2017-12-21T06:55:20.366Z,1.60
2017-12-21T06:57:52.148Z,1.60
2017-12-21T07:00:21.679Z,1.60
2017-12-21T07:02:50.923Z,1.60
2017-12-21T07:05:20.013Z,1.60
2017-12-21T07:07:49.221Z,1.60
2017-12-21T07:13:02.862Z,1.50
2017-12-21T07:15:33.893Z,1.60
2017-12-21T07:18:08.640Z,1.60
2017-12-21T07:20:42.803Z,1.60
2017-12-21T07:23:16.984Z,1.60
2017-12-21T07:25:49.837Z,1.60
2017-12-21T07:31:05.223Z,1.60
2017-12-21T07:33:38.965Z,1.60
2017-12-21T07:36:15.226Z,1.60
2017-12-21T07:38:47.511Z,1.60
2017-12-21T07:41:20.058Z,1.60
2017-12-21T07:43:51.938Z,1.60
2017-12-21T07:46:21.843Z,1.60
2017-12-21T07:48:51.355Z,1.60
2017-12-21T07:51:21.798Z,1.60
2017-12-21T07:53:51.424Z,1.60
2017-12-21T07:56:23.270Z,1.60
2017-12-21T07:58:54.081Z,1.60
2017-12-21T08:01:23.854Z,1.60
2017-12-21T08:03:52.936Z,1.60
2017-12-21T08:06:21.945Z,1.60
2017-12-21T08:08:51.169Z,1.60
2017-12-21T08:11:30.067Z,1.60
2017-12-21T08:14:02.503Z,1.60
2017-12-21T08:16:34.782Z,1.60
2017-12-21T08:19:07.357Z,1.70
2017-12-21T08:21:39.914Z,1.60
2017-12-21T08:24:08.811Z,1.70
2017-12-21T08:32:04.860Z,1.70
2017-12-21T08:34:35.756Z,1.70
2017-12-21T08:37:08.109Z,1.70
2017-12-21T08:42:23.159Z,1.80
2017-12-21T08:44:55.134Z,1.80
2017-12-21T08:47:30.050Z,1.80
2017-12-21T08:49:59.873Z,1.80
2017-12-21T08:52:37.489Z,1.80
2017-12-21T08:55:11.392Z,1.90
2017-12-21T08:57:41.735Z,1.90
2017-12-21T09:00:13.978Z,1.90
2017-12-21T09:02:46.831Z,1.90
2017-12-21T09:05:16.201Z,2.00
2017-12-21T09:07:47.263Z,2.00
2017-12-21T09:10:18.134Z,2.00
2017-12-21T09:12:49.663Z,2.00
2017-12-21T09:15:20.696Z,2.00
2017-12-21T09:23:32.795Z,2.00
2017-12-21T09:26:14.591Z,2.10
2017-12-21T09:28:45.970Z,2.10
2017-12-21T09:31:17.612Z,2.10
2017-12-21T09:33:50.800Z,2.20
2017-12-21T09:36:23.240Z,2.20
2017-12-21T09:38:56.237Z,2.20
2017-12-21T09:41:28.839Z,2.20
2017-12-21T09:44:14.814Z,2.20
2017-12-21T09:46:45.889Z,2.30
2017-12-21T09:49:15.630Z,2.30
2017-12-21T09:51:45.599Z,2.30
2017-12-21T09:54:20.779Z,2.30
2017-12-21T09:56:51.173Z,2.40
2017-12-21T09:59:21.070Z,2.40
2017-12-21T10:01:52.632Z,2.50
2017-12-21T10:04:24.326Z,2.50
2017-12-21T10:06:57.141Z,2.50
2017-12-21T10:12:02.568Z,2.50
2017-12-21T10:14:35.266Z,2.50
2017-12-21T10:17:07.089Z,2.60
2017-12-21T10:19:41.573Z,2.60
2017-12-21T10:22:14.877Z,2.70
2017-12-21T10:30:25.144Z,2.70
2017-12-21T10:33:05.022Z,2.70
2017-12-21T10:41:13.238Z,2.70
2017-12-21T11:50:25.608Z,3.40
2017-12-21T11:52:59.721Z,3.40
2017-12-21T12:01:03.750Z,3.50
2017-12-21T12:03:44.049Z,3.50
2017-12-21T12:06:15.269Z,3.60
2017-12-21T12:08:45.647Z,3.60
2017-12-21T12:14:10.616Z,3.70
2017-12-21T12:16:51.950Z,3.70
2017-12-21T12:19:23.276Z,3.70
2017-12-21T12:24:44.487Z,3.80
2017-12-21T12:27:15.348Z,3.80
2017-12-21T12:29:57.046Z,3.80
2017-12-21T12:32:30.946Z,3.90
2017-12-21T12:35:04.357Z,3.90
2017-12-21T12:37:36.895Z,3.90
2017-12-21T12:40:12.908Z,4.00
2017-12-21T12:42:46.031Z,4.00
2017-12-21T12:45:16.805Z,4.00
2017-12-21T12:47:54.099Z,4.00
2017-12-21T12:50:37.192Z,4.10
2017-12-21T12:55:59.727Z,4.10
2017-12-21T13:03:55.525Z,4.10
2017-12-21T13:14:44.523Z,4.10
2017-12-21T13:17:16.181Z,4.20
2017-12-21T13:19:56.463Z,4.20
2017-12-21T13:22:35.900Z,4.20
2017-12-21T13:25:10.732Z,4.20
2017-12-21T13:27:48.885Z,4.20
2017-12-21T13:35:55.197Z,4.30
2017-12-21T13:41:14.783Z,4.30
2017-12-21T13:43:52.777Z,4.30
2017-12-21T13:46:29.412Z,4.30
2017-12-21T14:14:02.977Z,4.40
2017-12-21T14:16:40.676Z,4.40
2017-12-21T14:24:46.485Z,4.40
2017-12-21T14:32:52.373Z,4.40
2017-12-21T14:35:26.487Z,4.40
2017-12-21T14:40:48.132Z,4.40
2017-12-21T14:48:45.108Z,4.40
2017-12-21T14:51:17.372Z,4.40
2017-12-21T14:53:46.692Z,4.40
2017-12-21T14:56:19.479Z,4.40
2017-12-21T15:01:28.342Z,4.40
2017-12-21T15:04:00.230Z,4.30
2017-12-21T15:06:29.780Z,4.40
2017-12-21T15:14:38.677Z,4.30
2017-12-21T15:17:14.312Z,4.30
2017-12-21T15:19:48.661Z,4.30
2017-12-21T15:22:24.023Z,4.30
2017-12-21T15:24:54.608Z,4.30
2017-12-21T15:32:58.479Z,4.30
2017-12-21T15:35:30.032Z,4.30
2017-12-21T15:38:01.880Z,4.30
2017-12-21T15:40:33.475Z,4.30
2017-12-21T15:43:05.134Z,4.30
2017-12-21T15:45:42.824Z,4.30
2017-12-21T15:48:14.451Z,4.20
2017-12-21T15:50:49.507Z,4.30
2017-12-21T15:53:21.652Z,4.20
2017-12-21T15:55:53.385Z,4.20
2017-12-21T15:58:25.027Z,4.20
2017-12-21T16:00:56.952Z,4.20
2017-12-21T16:03:26.500Z,4.20
2017-12-21T16:05:56.593Z,4.20
2017-12-21T16:08:27.033Z,4.20
2017-12-21T16:10:57.418Z,4.20
2017-12-21T16:13:26.012Z,4.20
2017-12-21T16:15:56.549Z,4.20
2017-12-21T16:18:31.127Z,4.20
2017-12-21T16:21:00.229Z,4.20
2017-12-21T16:23:29.606Z,4.20
2017-12-21T16:26:00.085Z,4.20
2017-12-21T16:28:29.634Z,4.20
2017-12-21T16:30:59.932Z,4.20
2017-12-21T16:33:29.125Z,4.20
2017-12-21T16:35:59.312Z,4.10
2017-12-21T16:38:28.670Z,4.10
2017-12-21T16:40:59.186Z,4.10
2017-12-21T16:43:29.371Z,4.10
2017-12-21T16:45:58.265Z,4.10
2017-12-21T16:48:28.062Z,4.10
2017-12-21T16:50:57.470Z,4.10
2017-12-21T16:53:26.381Z,4.10
2017-12-21T16:55:55.492Z,4.10
2017-12-21T16:58:23.982Z,4.10
2017-12-21T17:00:53.395Z,4.10
2017-12-21T17:03:21.697Z,4.10
2017-12-21T17:05:52.541Z,4.10
2017-12-21T17:08:22.095Z,4.00
2017-12-21T17:13:43.064Z,4.00
2017-12-21T17:16:13.704Z,4.00
2017-12-21T17:18:44.023Z,4.00
2017-12-21T17:21:14.139Z,4.00
2017-12-21T17:23:44.208Z,4.00
2017-12-21T17:26:14.562Z,4.00
2017-12-21T17:28:44.760Z,4.00
2017-12-21T17:31:14.326Z,4.00
2017-12-21T17:33:44.597Z,4.00
2017-12-21T17:36:16.332Z,4.00
2017-12-21T17:38:46.103Z,4.00
2017-12-21T17:41:15.433Z,4.00
2017-12-21T17:43:48.013Z,4.00
2017-12-21T17:46:19.169Z,3.90
2017-12-21T17:48:51.376Z,4.00
2017-12-21T17:51:26.551Z,4.00
2017-12-21T17:53:56.479Z,3.90
2017-12-21T17:56:25.121Z,3.90
2017-12-21T17:58:54.318Z,3.90
2017-12-21T18:01:24.448Z,3.90
2017-12-21T18:03:55.687Z,3.90
2017-12-21T18:06:28.786Z,3.90
2017-12-21T18:08:57.776Z,3.90
2017-12-21T18:11:27.982Z,3.90
2017-12-21T18:13:56.992Z,3.90
2017-12-21T18:16:28.021Z,3.90
2017-12-21T18:18:58.583Z,3.90
2017-12-21T18:21:27.904Z,3.90
2017-12-21T18:24:00.110Z,3.90
2017-12-21T18:26:40.727Z,3.80
2017-12-21T18:29:12.292Z,3.90
2017-12-21T18:31:44.158Z,3.90
2017-12-21T18:34:13.639Z,3.80
2017-12-21T18:36:43.029Z,3.80
2017-12-21T18:39:12.666Z,3.90
2017-12-21T18:41:43.278Z,3.80
2017-12-21T18:44:22.974Z,3.80
2017-12-21T18:52:36.308Z,3.80
2017-12-21T18:55:06.505Z,3.80
2017-12-21T18:57:36.545Z,3.80
2017-12-21T19:00:06.919Z,3.80
2017-12-21T19:02:37.862Z,3.80
2017-12-21T19:05:10.143Z,3.80
2017-12-21T19:07:41.132Z,3.80
2017-12-21T19:12:57.976Z,3.80
2017-12-21T19:15:32.123Z,3.80
2017-12-21T19:18:02.272Z,3.80
2017-12-21T19:20:36.591Z,3.80
2017-12-21T19:23:06.756Z,3.70
2017-12-21T19:25:38.963Z,3.80
2017-12-21T19:28:13.891Z,3.80
2017-12-21T19:30:44.794Z,3.80
2017-12-21T19:33:15.374Z,3.70
2017-12-21T19:35:47.006Z,3.80
2017-12-21T19:41:05.834Z,3.80
2017-12-21T19:43:40.214Z,3.70
2017-12-21T19:46:17.964Z,3.70
2017-12-21T19:48:56.601Z,3.70
2017-12-21T19:51:35.482Z,3.70
2017-12-21T19:54:13.186Z,3.70
2017-12-21T19:56:42.210Z,3.70
2017-12-21T19:59:10.966Z,3.70
2017-12-21T20:01:42.950Z,3.70
2017-12-21T20:04:17.805Z,3.70
2017-12-21T20:06:47.897Z,3.70
2017-12-21T20:09:19.464Z,3.70
2017-12-21T20:11:50.442Z,3.70
2017-12-21T20:14:24.183Z,3.70
2017-12-21T20:16:53.858Z,3.70
2017-12-21T20:19:25.123Z,3.70
2017-12-21T20:21:54.430Z,3.70
2017-12-21T20:24:24.579Z,3.70
2017-12-21T20:26:55.148Z,3.70
2017-12-21T20:29:25.794Z,3.60
2017-12-21T20:31:55.294Z,3.70
2017-12-21T20:34:26.174Z,3.70
2017-12-21T20:36:54.713Z,3.60
2017-12-21T20:39:29.760Z,3.60
2017-12-21T20:42:00.351Z,3.60
2017-12-21T20:44:29.981Z,3.60
2017-12-21T20:47:04.351Z,3.70
2017-12-21T20:49:39.080Z,3.70
2017-12-21T20:52:07.502Z,3.60
2017-12-21T20:57:21.018Z,3.60
2017-12-21T20:59:50.349Z,3.60
2017-12-21T21:02:21.547Z,3.60
2017-12-21T21:04:51.451Z,3.60
2017-12-21T21:07:23.317Z,3.60
2017-12-21T21:09:52.951Z,3.60
2017-12-21T21:12:22.847Z,3.60
2017-12-21T21:14:54.147Z,3.60
2017-12-21T21:17:25.026Z,3.60
2017-12-21T21:19:55.710Z,3.60
2017-12-21T21:22:25.730Z,3.60
2017-12-21T21:24:56.649Z,3.60
2017-12-21T21:27:27.805Z,3.60
2017-12-21T21:29:59.414Z,3.60
2017-12-21T21:32:28.334Z,3.60
2017-12-21T21:34:58.038Z,3.60
2017-12-21T21:37:29.022Z,3.60
2017-12-21T21:40:01.708Z,3.60
2017-12-21T21:42:34.253Z,3.60
2017-12-21T21:45:07.171Z,3.60
2017-12-21T21:47:39.690Z,3.60
2017-12-21T21:50:08.401Z,3.60
2017-12-21T21:52:37.302Z,3.60
2017-12-21T21:55:07.599Z,3.60
2017-12-21T21:57:38.572Z,3.60
2017-12-21T22:00:08.213Z,3.60
2017-12-21T22:02:38.516Z,3.60
2017-12-21T22:05:10.765Z,3.60
2017-12-21T22:07:39.255Z,3.60
2017-12-21T22:10:07.715Z,3.60
2017-12-21T22:12:36.670Z,3.50
2017-12-21T22:15:05.226Z,3.50
2017-12-21T22:17:34.463Z,3.50
2017-12-21T22:20:09.339Z,3.60
2017-12-21T22:22:40.666Z,3.50
2017-12-21T22:25:13.207Z,3.50
2017-12-21T22:27:45.277Z,3.50
2017-12-21T22:30:15.996Z,3.50
2017-12-21T22:32:46.032Z,3.50
2017-12-21T22:35:16.273Z,3.50
2017-12-21T22:37:47.820Z,3.50
2017-12-21T22:40:19.495Z,3.60
2017-12-21T22:42:54.722Z,3.50
2017-12-21T22:45:26.455Z,3.50
2017-12-21T22:48:00.951Z,3.50
2017-12-21T22:50:30.359Z,3.50
2017-12-21T22:53:00.680Z,3.50
2017-12-21T22:55:30.368Z,3.50
2017-12-21T22:57:59.819Z,3.50
2017-12-21T23:00:30.057Z,3.50
2017-12-21T23:03:00.920Z,3.50
2017-12-21T23:05:30.305Z,3.50
2017-12-21T23:08:00.845Z,3.50
2017-12-21T23:10:31.237Z,3.50
2017-12-21T23:13:01.181Z,3.50
2017-12-21T23:15:31.276Z,3.40
2017-12-21T23:18:01.429Z,3.50
2017-12-21T23:20:30.537Z,3.50
2017-12-21T23:22:59.616Z,3.40
2017-12-21T23:25:30.073Z,3.40
2017-12-21T23:27:59.782Z,3.40
2017-12-21T23:30:30.504Z,3.40
2017-12-21T23:33:00.009Z,3.50
2017-12-21T23:35:30.874Z,3.50
2017-12-21T23:38:03.479Z,3.40
2017-12-21T23:40:38.290Z,3.40
2017-12-21T23:43:10.445Z,3.40
2017-12-21T23:45:40.619Z,3.40
2017-12-21T23:51:06.398Z,3.40
2017-12-21T23:53:36.744Z,3.40
2017-12-21T23:56:07.236Z,3.40
2017-12-21T23:58:37.166Z,3.40
